Time,TemperatureF,DewpointF,PressureIn,WindDirection,WindDirectionDegrees,WindSpeedMPH,WindSpeedGustMPH,Humidity,HourlyPrecipIn,Conditions,Clouds,dailyrainin,SoftwareType,DateUTC
2013-04-26 08:12:00,60.0,-99.9,-100.00,NW,325,-999.0,-999.0,-999,-99.99,,,-99.99,,2013-04-26 15:12:00,
2013-04-26 08:22:00,60.0,-99.9,-100.00,NW,325,-999.0,-999.0,-999,-99.99,,,-99.99,,2013-04-26 15:22:00,
2013-04-26 08:43:00,63.0,-99.9,-100.00,South,183,-999.0,0.0,-999,-99.99,,,-99.99,,2013-04-26 15:43:00,
2013-04-26 08:53:00,63.0,-99.9,-100.00,South,183,-999.0,0.0,-999,-99.99,,,-99.99,,2013-04-26 15:53:00,
2013-04-26 09:42:00,68.0,-99.9,-100.00,SE,125,-999.0,0.0,-999,-99.99,,,-99.99,,2013-04-26 16:42:00,
2013-04-26 09:53:00,68.0,-99.9,-100.00,SE,125,-999.0,0.0,-999,-99.99,,,-99.99,,2013-04-26 16:53:00,
2013-04-26 10:12:00,69.0,-99.9,-100.00,SSW,213,-999.0,3.0,-999,-99.99,,,-99.99,,2013-04-26 17:12:00,
2013-04-26 10:22:00,69.0,-99.9,-100.00,SSW,213,-999.0,3.0,-999,-99.99,,,-99.99,,2013-04-26 17:22:00,
2013-04-26 10:41:00,69.0,50.0,-100.00,WSW,240,-999.0,5.0,50,-99.99,,,-99.99,,2013-04-26 17:41:00,
2013-04-26 10:52:00,69.0,50.0,-100.00,WSW,240,-999.0,5.0,50,-99.99,,,-99.99,,2013-04-26 17:52:00,
2013-04-26 11:02:00,69.0,50.0,-100.00,WSW,240,-999.0,5.0,50,-99.99,,,-99.99,,2013-04-26 18:02:00,
2013-04-26 11:11:00,71.0,52.0,-100.00,South,185,-999.0,6.0,50,-99.99,,,-99.99,,2013-04-26 18:11:00,
2013-04-26 11:22:00,71.0,52.0,-100.00,South,185,-999.0,6.0,50,-99.99,,,-99.99,,2013-04-26 18:22:00,
2013-04-26 11:33:00,71.0,52.0,-100.00,South,185,-999.0,6.0,50,-99.99,,,-99.99,,2013-04-26 18:33:00,
2013-04-26 11:41:00,72.0,54.0,-100.00,South,177,-999.0,-999.0,52,-99.99,,,-99.99,,2013-04-26 18:41:00,
2013-04-26 11:52:00,72.0,54.0,-100.00,South,177,-999.0,-999.0,52,-99.99,,,-99.99,,2013-04-26 18:52:00,
2013-04-26 12:01:00,72.0,54.0,-100.00,South,177,-999.0,-999.0,52,-99.99,,,-99.99,,2013-04-26 19:01:00,
2013-04-26 12:11:00,71.0,55.0,-100.00,SW,232,-999.0,-999.0,56,-99.99,,,-99.99,,2013-04-26 19:11:00,
2013-04-26 12:22:00,71.0,55.0,-100.00,SW,232,-999.0,-999.0,56,-99.99,,,-99.99,,2013-04-26 19:22:00,
2013-04-26 12:31:00,71.0,55.0,-100.00,SW,232,-999.0,-999.0,56,-99.99,,,-99.99,,2013-04-26 19:31:00,
2013-04-26 12:41:00,72.0,53.0,-100.00,WSW,238,-999.0,9.0,51,-99.99,,,-99.99,,2013-04-26 19:41:00,
2013-04-26 12:52:00,72.0,53.0,-100.00,WSW,238,-999.0,9.0,51,-99.99,,,-99.99,,2013-04-26 19:52:00,
2013-04-26 13:02:00,72.0,53.0,-100.00,WSW,238,-999.0,9.0,51,-99.99,,,-99.99,,2013-04-26 20:02:00,
2013-04-26 13:11:00,71.0,52.0,-100.00,SW,229,-999.0,-999.0,50,-99.99,,,-99.99,,2013-04-26 20:11:00,
2013-04-26 13:21:00,71.0,52.0,-100.00,SW,229,-999.0,-999.0,50,-99.99,,,-99.99,,2013-04-26 20:21:00,
2013-04-26 13:32:00,71.0,52.0,-100.00,SW,229,-999.0,-999.0,50,-99.99,,,-99.99,,2013-04-26 20:32:00,
2013-04-26 13:41:00,72.0,53.0,-100.00,SW,226,-999.0,9.0,50,-99.99,,,-99.99,,2013-04-26 20:41:00,
2013-04-26 13:52:00,72.0,53.0,-100.00,SW,226,-999.0,9.0,50,-99.99,,,-99.99,,2013-04-26 20:52:00,
2013-04-26 14:01:00,72.0,53.0,-100.00,SW,226,-999.0,9.0,50,-99.99,,,-99.99,,2013-04-26 21:01:00,
2013-04-26 14:11:00,72.0,53.0,-100.00,SW,226,-999.0,9.0,50,-99.99,,,-99.99,,2013-04-26 21:11:00,
2013-04-26 15:42:00,70.0,53.0,-100.00,West,261,-999.0,-999.0,54,-99.99,,,-99.99,,2013-04-26 22:42:00,
2013-04-26 15:52:00,70.0,53.0,-100.00,West,261,-999.0,-999.0,54,-99.99,,,-99.99,,2013-04-26 22:52:00,
2013-04-26 16:01:00,70.0,53.0,-100.00,West,261,-999.0,-999.0,54,-99.99,,,-99.99,,2013-04-26 23:01:00,
2013-04-26 16:11:00,70.0,52.0,-100.00,SSW,208,-999.0,-999.0,53,-99.99,,,-99.99,,2013-04-26 23:11:00,
2013-04-26 16:21:00,70.0,52.0,-100.00,SSW,208,-999.0,-999.0,53,-99.99,,,-99.99,,2013-04-26 23:21:00,
2013-04-26 16:32:00,70.0,52.0,-100.00,SSW,208,-999.0,-999.0,53,-99.99,,,-99.99,,2013-04-26 23:32:00,
2013-04-26 16:42:00,69.0,52.0,-100.00,SW,220,-999.0,10.0,55,-99.99,,,-99.99,,2013-04-26 23:42:00,
2013-04-26 16:52:00,69.0,52.0,-100.00,SW,220,-999.0,10.0,55,-99.99,,,-99.99,,2013-04-26 23:52:00,
2013-04-26 17:01:00,69.0,52.0,-100.00,SW,220,-999.0,10.0,55,-99.99,,,-99.99,,2013-04-27 00:01:00,
2013-04-26 17:42:00,66.0,-99.9,-100.00,SW,230,-999.0,-999.0,-999,-99.99,,,-99.99,,2013-04-27 00:42:00,
2013-04-26 17:52:00,66.0,-99.9,-100.00,SW,230,-999.0,-999.0,-999,-99.99,,,-99.99,,2013-04-27 00:52:00,
2013-04-26 18:01:00,66.0,-99.9,-100.00,SW,230,-999.0,-999.0,-999,-99.99,,,-99.99,,2013-04-27 01:01:00,
2013-04-26 18:12:00,66.0,-99.9,-100.00,SW,230,-999.0,-999.0,-999,-99.99,,,-99.99,,2013-04-27 01:12:00,
2013-04-26 18:42:00,64.0,-99.9,-100.00,SSW,192,-999.0,8.0,-999,-99.99,,,-99.99,,2013-04-27 01:42:00,
2013-04-26 18:52:00,64.0,-99.9,-100.00,SSW,192,-999.0,8.0,-999,-99.99,,,-99.99,,2013-04-27 01:52:00,
2013-04-26 19:02:00,64.0,-99.9,-100.00,SSW,192,-999.0,8.0,-999,-99.99,,,-99.99,,2013-04-27 02:02:00,
2013-04-26 19:11:00,62.0,-99.9,-100.00,SW,232,-999.0,4.0,-999,-99.99,,,-99.99,,2013-04-27 02:11:00,
2013-04-26 19:22:00,62.0,-99.9,-100.00,SW,232,-999.0,4.0,-999,-99.99,,,-99.99,,2013-04-27 02:22:00,
2013-04-26 19:32:00,62.0,-99.9,-100.00,SW,232,-999.0,4.0,-999,-99.99,,,-99.99,,2013-04-27 02:32:00,
2013-04-26 19:42:00,58.0,-99.9,-100.00,SSW,211,-999.0,1.0,-999,-99.99,,,-99.99,,2013-04-27 02:42:00,
2013-04-26 19:52:00,58.0,-99.9,-100.00,SSW,211,-999.0,1.0,-999,-99.99,,,-99.99,,2013-04-27 02:52:00,
2013-04-26 20:02:00,58.0,-99.9,-100.00,SSW,211,-999.0,1.0,-999,-99.99,,,-99.99,,2013-04-27 03:02:00,
2013-04-26 20:11:00,55.0,-99.9,-100.00,SW,217,-999.0,1.0,-999,-99.99,,,-99.99,,2013-04-27 03:11:00,
2013-04-26 20:22:00,55.0,-99.9,-100.00,SW,217,-999.0,1.0,-999,-99.99,,,-99.99,,2013-04-27 03:22:00,
2013-04-26 20:33:00,55.0,-99.9,-100.00,SW,217,-999.0,1.0,-999,-99.99,,,-99.99,,2013-04-27 03:33:00,
2013-04-26 20:42:00,54.0,53.0,-100.00,SW,217,-999.0,1.0,96,-99.99,,,-99.99,,2013-04-27 03:42:00,
2013-04-26 20:53:00,54.0,53.0,-100.00,SW,217,-999.0,1.0,96,-99.99,,,-99.99,,2013-04-27 03:53:00,
2013-04-26 21:02:00,54.0,53.0,-100.00,SW,217,-999.0,1.0,96,-99.99,,,-99.99,,2013-04-27 04:02:00,
2013-04-26 22:12:00,53.0,53.0,-100.00,SW,217,-999.0,1.0,98,-99.99,,,-99.99,,2013-04-27 05:12:00,
2013-04-26 22:22:00,53.0,53.0,-100.00,SW,217,-999.0,1.0,98,-99.99,,,-99.99,,2013-04-27 05:22:00,
2013-04-26 22:32:00,53.0,53.0,-100.00,SW,217,-999.0,1.0,98,-99.99,,,-99.99,,2013-04-27 05:32:00,
2013-04-26 22:42:00,53.0,53.0,-100.00,SW,217,-999.0,1.0,98,-99.99,,,-99.99,,2013-04-27 05:42:00,